createdAt,value
2016-12-13T00:00:02.394Z,1019.33
2016-12-13T00:01:02.377Z,1019.31
2016-12-13T00:02:02.362Z,1019.33
2016-12-13T00:03:02.345Z,1019.29
2016-12-13T00:04:02.329Z,1019.27
2016-12-13T00:05:02.316Z,1019.28
2016-12-13T00:06:02.297Z,1019.26
2016-12-13T00:07:02.280Z,1019.29
2016-12-13T00:08:02.265Z,1019.28
2016-12-13T00:09:02.247Z,1019.26
2016-12-13T00:10:02.233Z,1019.26
2016-12-13T00:11:02.217Z,1019.26
2016-12-13T00:12:02.201Z,1019.24
2016-12-13T00:13:02.182Z,1019.21
2016-12-13T00:14:02.166Z,1019.24
2016-12-13T00:15:02.153Z,1019.22
2016-12-13T00:16:02.137Z,1019.24
2016-12-13T00:17:02.120Z,1019.21
2016-12-13T00:18:02.105Z,1019.23
2016-12-13T00:19:02.087Z,1019.24
2016-12-13T00:20:02.076Z,1019.22
2016-12-13T00:21:02.056Z,1019.24
2016-12-13T00:22:02.040Z,1019.23
2016-12-13T00:23:02.023Z,1019.21
2016-12-13T00:24:02.006Z,1019.2
2016-12-13T00:25:01.990Z,1019.17
2016-12-13T00:26:01.976Z,1019.17
2016-12-13T00:27:01.958Z,1019.22
2016-12-13T00:28:01.942Z,1019.18
2016-12-13T00:29:01.925Z,1019.18
2016-12-13T00:30:01.911Z,1019.17
2016-12-13T00:31:01.893Z,1019.16
2016-12-13T00:32:01.878Z,1019.16
2016-12-13T00:33:01.862Z,1019.14
2016-12-13T00:34:01.846Z,1019.16
2016-12-13T00:35:01.833Z,1019.15
2016-12-13T00:36:01.815Z,1019.09
2016-12-13T00:37:01.796Z,1019.12
2016-12-13T00:38:01.781Z,1019.09
2016-12-13T00:39:01.764Z,1019.05
2016-12-13T00:40:01.747Z,1019.11
2016-12-13T00:41:01.732Z,1019.1
2016-12-13T00:42:01.717Z,1019.06
2016-12-13T00:43:01.702Z,1019.06
2016-12-13T00:44:01.684Z,1019.1
2016-12-13T00:45:01.667Z,1019.06
2016-12-13T00:46:01.652Z,1019.04
2016-12-13T00:47:01.634Z,1019.04
2016-12-13T00:48:01.619Z,1019.03
2016-12-13T00:49:01.602Z,1019.04
2016-12-13T00:50:01.586Z,1019.02
2016-12-13T00:51:01.569Z,1018.99
2016-12-13T00:52:01.554Z,1018.97
2016-12-13T00:53:01.537Z,1019.03
2016-12-13T00:54:01.521Z,1019.04
2016-12-13T00:55:01.505Z,1019.08
2016-12-13T00:56:01.489Z,1019.04
2016-12-13T00:57:01.472Z,1018.99
2016-12-13T00:58:01.457Z,1019.02
2016-12-13T00:59:01.444Z,1019.07
2016-12-13T01:00:01.424Z,1019.06
2016-12-13T01:01:01.407Z,1019
2016-12-13T01:02:01.393Z,1019
2016-12-13T01:03:01.373Z,1019.02
2016-12-13T01:04:01.358Z,1019.06
2016-12-13T01:05:01.343Z,1018.98
2016-12-13T01:06:01.327Z,1018.99
2016-12-13T01:07:01.310Z,1019.03
2016-12-13T01:08:01.293Z,1018.95
2016-12-13T01:09:01.278Z,1018.94
2016-12-13T01:10:01.262Z,1019.04
2016-12-13T01:11:01.245Z,1019.01
2016-12-13T01:12:01.228Z,1019.03
2016-12-13T01:13:01.213Z,1019.01
2016-12-13T01:14:01.196Z,1018.94
2016-12-13T01:15:01.179Z,1018.97
2016-12-13T01:16:01.163Z,1018.95
2016-12-13T01:17:01.150Z,1018.94
2016-12-13T01:18:01.131Z,1018.92
2016-12-13T01:19:01.114Z,1018.94
2016-12-13T01:20:01.098Z,1018.91
2016-12-13T01:21:01.085Z,1018.92
2016-12-13T01:22:01.066Z,1018.94
2016-12-13T01:23:01.049Z,1018.93
2016-12-13T01:24:01.034Z,1018.91
2016-12-13T01:25:01.018Z,1018.92
2016-12-13T01:26:01.001Z,1018.89
2016-12-13T01:27:00.984Z,1018.9
2016-12-13T01:28:00.971Z,1018.9
2016-12-13T01:29:00.953Z,1018.86
2016-12-13T01:30:00.936Z,1018.88
2016-12-13T01:31:00.919Z,1018.88
2016-12-13T01:32:00.904Z,1018.83
2016-12-13T01:33:00.889Z,1018.81
2016-12-13T01:34:00.876Z,1018.82
2016-12-13T01:35:00.857Z,1018.81
2016-12-13T01:36:00.839Z,1018.84
2016-12-13T01:37:00.822Z,1018.81
2016-12-13T01:38:00.807Z,1018.79
2016-12-13T01:39:00.792Z,1018.83
2016-12-13T01:40:00.774Z,1018.82
2016-12-13T01:41:00.757Z,1018.83
2016-12-13T01:42:00.742Z,1018.79
2016-12-13T01:43:00.725Z,1018.8
2016-12-13T01:44:00.708Z,1018.79
2016-12-13T01:45:00.692Z,1018.79
2016-12-13T01:46:00.677Z,1018.74
2016-12-13T01:47:00.660Z,1018.74
2016-12-13T01:48:00.642Z,1018.78
2016-12-13T01:49:00.628Z,1018.71
2016-12-13T01:50:00.612Z,1018.73
2016-12-13T01:51:00.596Z,1018.7
2016-12-13T01:52:00.578Z,1018.7
2016-12-13T01:53:00.560Z,1018.67
2016-12-13T01:54:00.550Z,1018.68
2016-12-13T01:55:00.528Z,1018.72
2016-12-13T01:56:00.513Z,1018.65
2016-12-13T01:57:00.495Z,1018.71
2016-12-13T01:58:00.481Z,1018.67
2016-12-13T01:59:00.462Z,1018.67
2016-12-13T02:00:00.446Z,1018.65
2016-12-13T02:01:00.432Z,1018.59
2016-12-13T02:02:00.414Z,1018.6
2016-12-13T02:03:00.402Z,1018.61
2016-12-13T02:04:00.381Z,1018.57
2016-12-13T02:05:00.367Z,1018.61
2016-12-13T02:06:00.349Z,1018.62
2016-12-13T02:07:00.332Z,1018.56
2016-12-13T02:08:00.316Z,1018.57
2016-12-13T02:09:00.299Z,1018.56
2016-12-13T02:10:00.284Z,1018.53
2016-12-13T02:11:00.269Z,1018.54
2016-12-13T02:12:00.252Z,1018.55
2016-12-13T02:13:00.235Z,1018.54
2016-12-13T02:14:00.217Z,1018.54
2016-12-13T02:15:00.203Z,1018.5
2016-12-13T02:16:00.185Z,1018.53
2016-12-13T02:17:00.167Z,1018.5
2016-12-13T02:18:00.153Z,1018.49
2016-12-13T02:19:00.134Z,1018.46
2016-12-13T02:20:00.120Z,1018.42
2016-12-13T02:21:00.103Z,1018.43
2016-12-13T02:22:00.089Z,1018.42
2016-12-13T02:23:00.070Z,1018.41
2016-12-13T02:24:00.055Z,1018.39
2016-12-13T02:25:00.038Z,1018.37
2016-12-13T02:26:00.024Z,1018.31
2016-12-13T02:27:00.005Z,1018.29
2016-12-13T02:27:59.992Z,1018.29
2016-12-13T02:28:59.971Z,1018.27
2016-12-13T02:29:59.956Z,1018.3
2016-12-13T02:30:59.938Z,1018.28
2016-12-13T02:31:59.921Z,1018.26
2016-12-13T02:32:59.906Z,1018.25
2016-12-13T02:33:59.890Z,1018.25
2016-12-13T02:34:59.874Z,1018.3
2016-12-13T02:35:59.857Z,1018.28
2016-12-13T02:36:59.841Z,1018.26
2016-12-13T02:37:59.824Z,1018.26
2016-12-13T02:38:59.807Z,1018.26
2016-12-13T02:39:59.792Z,1018.24
2016-12-13T02:40:59.776Z,1018.22
2016-12-13T02:41:59.759Z,1018.21
2016-12-13T02:42:59.744Z,1018.25
2016-12-13T02:43:59.725Z,1018.2
2016-12-13T02:44:59.711Z,1018.23
2016-12-13T02:45:59.692Z,1018.22
2016-12-13T02:46:59.675Z,1018.19
2016-12-13T02:47:59.660Z,1018.22
2016-12-13T02:48:59.643Z,1018.17
2016-12-13T02:49:59.627Z,1018.2
2016-12-13T02:50:59.610Z,1018.18
2016-12-13T02:51:59.593Z,1018.21
2016-12-13T02:52:59.578Z,1018.18
2016-12-13T02:53:59.566Z,1018.21
2016-12-13T02:54:59.543Z,1018.19
2016-12-13T02:55:59.529Z,1018.13
2016-12-13T02:56:59.511Z,1018.11
2016-12-13T02:57:59.494Z,1018.2
2016-12-13T02:58:59.480Z,1018.19
2016-12-13T02:59:59.461Z,1018.19
2016-12-13T03:00:59.444Z,1018.18
2016-12-13T03:01:59.429Z,1018.19
2016-12-13T03:02:59.416Z,1018.12
2016-12-13T03:03:59.397Z,1018.2
2016-12-13T03:04:59.379Z,1018.18
2016-12-13T03:05:59.362Z,1018.21
2016-12-13T03:06:59.347Z,1018.19
2016-12-13T03:07:59.330Z,1018.19
2016-12-13T03:08:59.314Z,1018.18
2016-12-13T03:09:59.299Z,1018.18
2016-12-13T03:10:59.282Z,1018.26
2016-12-13T03:11:59.267Z,1018.16
2016-12-13T03:12:59.248Z,1018.19
2016-12-13T03:13:59.234Z,1018.23
2016-12-13T03:14:59.215Z,1018.23
2016-12-13T03:15:59.198Z,1018.21
2016-12-13T03:16:59.186Z,1018.23
2016-12-13T03:17:59.167Z,1018.23
2016-12-13T03:18:59.148Z,1018.24
2016-12-13T03:19:59.133Z,1018.22
2016-12-13T03:20:59.118Z,1018.2
2016-12-13T03:21:59.101Z,1018.17
2016-12-13T03:22:59.084Z,1018.19
2016-12-13T03:23:59.066Z,1018.17
2016-12-13T03:24:59.051Z,1018.13
2016-12-13T03:25:59.032Z,1018.15
2016-12-13T03:26:59.016Z,1018.15
2016-12-13T03:27:59.002Z,1018.15
2016-12-13T03:28:58.984Z,1018.17
2016-12-13T03:29:58.969Z,1018.16
2016-12-13T03:30:58.954Z,1018.1
2016-12-13T03:31:58.933Z,1018.09
2016-12-13T03:32:58.920Z,1018.11
2016-12-13T03:33:58.904Z,1018.11
2016-12-13T03:34:58.887Z,1018.15
2016-12-13T03:35:58.870Z,1018.13
2016-12-13T03:36:58.852Z,1018.1
2016-12-13T03:37:58.835Z,1018.1
2016-12-13T03:38:58.820Z,1018.11
2016-12-13T03:39:58.803Z,1018.12
2016-12-13T03:40:58.785Z,1018.1
2016-12-13T03:41:58.770Z,1018.14
2016-12-13T03:42:58.754Z,1018.15
2016-12-13T03:43:58.736Z,1018.12
2016-12-13T03:44:58.719Z,1018.18
2016-12-13T03:45:58.703Z,1018.16
2016-12-13T03:46:58.686Z,1018.17
2016-12-13T03:47:58.669Z,1018.16
2016-12-13T03:48:58.653Z,1018.13
2016-12-13T03:49:58.640Z,1018.14
2016-12-13T03:50:58.621Z,1018.12
2016-12-13T03:51:58.604Z,1018.15
2016-12-13T03:52:58.586Z,1018.16
2016-12-13T03:53:58.571Z,1018.14
2016-12-13T03:54:58.553Z,1018.12
2016-12-13T03:55:58.537Z,1018.12
2016-12-13T03:56:58.519Z,1018.09
2016-12-13T03:57:58.504Z,1018.06
2016-12-13T03:58:58.487Z,1018.05
2016-12-13T03:59:58.469Z,1018.09
2016-12-13T04:00:58.458Z,1018.1
2016-12-13T04:01:58.437Z,1018.08
2016-12-13T04:02:58.424Z,1018.06
2016-12-13T04:03:58.404Z,1018.07
2016-12-13T04:04:58.387Z,1018.07
2016-12-13T04:05:58.372Z,1018.03
2016-12-13T04:06:58.353Z,1018.05
2016-12-13T04:07:58.340Z,1018.02
2016-12-13T04:08:58.322Z,1017.96
2016-12-13T04:09:58.305Z,1018.02
2016-12-13T04:10:58.288Z,1017.98
2016-12-13T04:11:58.274Z,1017.96
2016-12-13T04:12:58.255Z,1017.93
2016-12-13T04:13:58.238Z,1017.94
2016-12-13T04:14:58.221Z,1017.93
2016-12-13T04:15:58.254Z,1017.93
2016-12-13T04:16:58.188Z,1017.93
2016-12-13T04:17:58.171Z,1017.96
2016-12-13T04:18:58.154Z,1017.96
2016-12-13T04:19:58.139Z,1017.93
2016-12-13T04:20:58.124Z,1017.99
2016-12-13T04:21:58.103Z,1017.95
2016-12-13T04:22:58.088Z,1017.9
2016-12-13T04:23:58.071Z,1017.94
2016-12-13T04:24:58.054Z,1017.9
2016-12-13T04:25:58.039Z,1017.92
2016-12-13T04:26:58.021Z,1017.91
2016-12-13T04:27:58.010Z,1017.83
2016-12-13T04:28:57.987Z,1017.86
2016-12-13T04:29:57.971Z,1017.87
2016-12-13T04:30:57.954Z,1017.89
2016-12-13T04:31:57.939Z,1017.89
2016-12-13T04:32:57.922Z,1017.87
2016-12-13T04:33:57.906Z,1017.83
2016-12-13T04:34:57.888Z,1017.86
2016-12-13T04:35:57.872Z,1017.84
2016-12-13T04:36:57.859Z,1017.8
2016-12-13T04:37:57.840Z,1017.88
2016-12-13T04:38:57.823Z,1017.81
2016-12-13T04:39:57.805Z,1017.78
2016-12-13T04:40:57.788Z,1017.82
2016-12-13T04:41:57.773Z,1017.79
2016-12-13T04:42:57.756Z,1017.84
2016-12-13T04:43:57.740Z,1017.81
2016-12-13T04:44:57.725Z,1017.8
2016-12-13T04:45:57.708Z,1017.83
2016-12-13T04:46:57.691Z,1017.79
2016-12-13T04:47:57.674Z,1017.78
2016-12-13T04:48:57.656Z,1017.81
2016-12-13T04:49:57.645Z,1017.81
2016-12-13T04:50:57.624Z,1017.82
2016-12-13T04:51:57.605Z,1017.87
2016-12-13T04:52:57.591Z,1017.83
2016-12-13T04:53:57.574Z,1017.87
2016-12-13T04:54:57.561Z,1017.85
2016-12-13T04:55:57.542Z,1017.88
2016-12-13T04:56:57.524Z,1017.87
2016-12-13T04:57:57.507Z,1017.89
2016-12-13T04:58:57.490Z,1017.87
2016-12-13T04:59:57.475Z,1017.86
2016-12-13T05:00:57.457Z,1017.84
2016-12-13T05:01:57.442Z,1017.87
2016-12-13T05:02:57.423Z,1017.84
2016-12-13T05:03:57.411Z,1017.86
2016-12-13T05:04:57.391Z,1017.84
2016-12-13T05:05:57.376Z,1017.78
2016-12-13T05:06:57.358Z,1017.81
2016-12-13T05:07:57.341Z,1017.82
2016-12-13T05:08:57.322Z,1017.83
2016-12-13T05:09:57.308Z,1017.78
2016-12-13T05:10:57.291Z,1017.81
2016-12-13T05:11:57.274Z,1017.85
2016-12-13T05:12:57.257Z,1017.84
2016-12-13T05:13:57.241Z,1017.88
2016-12-13T05:14:57.226Z,1017.84
2016-12-13T05:15:57.207Z,1017.85
2016-12-13T05:16:57.192Z,1017.85
2016-12-13T05:17:57.175Z,1017.83
2016-12-13T05:18:57.159Z,1017.88
2016-12-13T05:19:57.141Z,1017.9
2016-12-13T05:20:57.125Z,1017.9
2016-12-13T05:21:57.112Z,1017.9
2016-12-13T05:22:57.092Z,1017.89
2016-12-13T05:23:57.077Z,1017.87
2016-12-13T05:24:57.058Z,1017.9
2016-12-13T05:25:57.047Z,1017.87
2016-12-13T05:26:57.026Z,1017.83
2016-12-13T05:27:57.008Z,1017.84
2016-12-13T05:28:56.993Z,1017.82
2016-12-13T05:29:56.976Z,1017.82
2016-12-13T05:30:56.963Z,1017.82
2016-12-13T05:31:56.944Z,1017.84
2016-12-13T05:32:56.927Z,1017.86
2016-12-13T05:33:56.912Z,1017.82
2016-12-13T05:34:56.897Z,1017.85
2016-12-13T05:35:56.879Z,1017.85
2016-12-13T05:36:56.862Z,1017.86
2016-12-13T05:37:56.846Z,1017.83
2016-12-13T05:38:56.829Z,1017.87
2016-12-13T05:39:56.812Z,1017.88
2016-12-13T05:40:56.797Z,1017.88
2016-12-13T05:41:56.784Z,1017.91
2016-12-13T05:42:56.763Z,1017.9
2016-12-13T05:43:56.749Z,1017.89
2016-12-13T05:44:56.732Z,1017.87
2016-12-13T05:45:56.715Z,1017.89
2016-12-13T05:46:56.697Z,1017.85
2016-12-13T05:47:56.682Z,1017.84
2016-12-13T05:48:56.665Z,1017.84
2016-12-13T05:49:56.648Z,1017.8
2016-12-13T05:50:56.636Z,1017.79
2016-12-13T05:51:56.618Z,1017.76
2016-12-13T05:52:56.600Z,1017.76
2016-12-13T05:53:56.585Z,1017.75
2016-12-13T05:54:56.571Z,1017.77
2016-12-13T05:55:56.553Z,1017.78
2016-12-13T05:56:56.535Z,1017.77
2016-12-13T05:57:56.528Z,1017.75
2016-12-13T05:58:56.503Z,1017.76
2016-12-13T05:59:56.486Z,1017.73
2016-12-13T06:00:56.470Z,1017.72
2016-12-13T06:01:56.453Z,1017.76
2016-12-13T06:02:56.439Z,1017.75
2016-12-13T06:03:56.421Z,1017.81
2016-12-13T06:04:56.405Z,1017.8
2016-12-13T06:05:56.389Z,1017.8
2016-12-13T06:06:56.373Z,1017.78
2016-12-13T06:07:56.356Z,1017.79
2016-12-13T06:08:56.341Z,1017.84
2016-12-13T06:09:56.323Z,1017.79
2016-12-13T06:10:56.306Z,1017.84
2016-12-13T06:11:56.291Z,1017.81
2016-12-13T06:12:56.274Z,1017.81
2016-12-13T06:13:56.258Z,1017.8
2016-12-13T06:14:56.241Z,1017.77
2016-12-13T06:15:56.226Z,1017.8
2016-12-13T06:16:56.215Z,1017.81
2016-12-13T06:17:56.194Z,1017.77
2016-12-13T06:18:56.180Z,1017.77
2016-12-13T06:19:56.163Z,1017.81
2016-12-13T06:20:56.146Z,1017.83
2016-12-13T06:21:56.131Z,1017.78
2016-12-13T06:22:56.114Z,1017.76
2016-12-13T06:23:56.098Z,1017.78
2016-12-13T06:24:56.083Z,1017.76
2016-12-13T06:25:56.068Z,1017.74
2016-12-13T06:26:56.049Z,1017.75
2016-12-13T06:27:56.035Z,1017.77
2016-12-13T06:28:56.016Z,1017.74
2016-12-13T06:29:56.005Z,1017.72
2016-12-13T06:30:55.984Z,1017.75
2016-12-13T06:31:55.972Z,1017.78
2016-12-13T06:32:55.950Z,1017.74
2016-12-13T06:33:55.941Z,1017.78
2016-12-13T06:34:55.921Z,1017.76
2016-12-13T06:35:55.904Z,1017.76
2016-12-13T06:36:55.888Z,1017.76
2016-12-13T06:37:55.872Z,1017.76
2016-12-13T06:38:55.855Z,1017.76
2016-12-13T06:39:55.839Z,1017.69
2016-12-13T06:40:55.824Z,1017.8
2016-12-13T06:41:55.807Z,1017.73
2016-12-13T06:42:55.792Z,1017.75
2016-12-13T06:43:55.776Z,1017.78
2016-12-13T06:44:55.759Z,1017.76
2016-12-13T06:45:55.742Z,1017.78
2016-12-13T06:46:55.729Z,1017.75
2016-12-13T06:47:55.710Z,1017.78
2016-12-13T06:48:55.696Z,1017.76
2016-12-13T06:49:55.679Z,1017.76
2016-12-13T06:50:55.662Z,1017.81
2016-12-13T06:51:55.646Z,1017.78
2016-12-13T06:52:55.629Z,1017.77
2016-12-13T06:53:55.616Z,1017.74
2016-12-13T06:54:55.847Z,1017.76
2016-12-13T06:55:55.581Z,1017.75
2016-12-13T06:56:55.566Z,1017.75
2016-12-13T06:57:55.549Z,1017.73
2016-12-13T06:58:55.532Z,1017.76
2016-12-13T06:59:55.517Z,1017.74
2016-12-13T07:00:55.502Z,1017.77
2016-12-13T07:01:55.484Z,1017.78
2016-12-13T07:02:55.469Z,1017.78
2016-12-13T07:03:55.454Z,1017.8
2016-12-13T07:04:55.437Z,1017.8
2016-12-13T07:05:55.422Z,1017.75
2016-12-13T07:06:55.404Z,1017.71
2016-12-13T07:07:55.389Z,1017.74
2016-12-13T07:08:55.375Z,1017.75
2016-12-13T07:09:55.357Z,1017.75
2016-12-13T07:10:55.343Z,1017.73
2016-12-13T07:11:55.324Z,1017.67
2016-12-13T07:12:55.309Z,1017.7
2016-12-13T07:13:55.292Z,1017.73
2016-12-13T07:14:55.279Z,1017.79
2016-12-13T07:15:55.261Z,1017.8
2016-12-13T07:16:55.244Z,1017.79
2016-12-13T07:17:55.229Z,1017.8
2016-12-13T07:18:55.214Z,1017.82
2016-12-13T07:19:55.199Z,1017.8
2016-12-13T07:20:55.182Z,1017.84
2016-12-13T07:21:55.164Z,1017.89
2016-12-13T07:22:55.149Z,1017.93
2016-12-13T07:23:55.134Z,1017.95
2016-12-13T07:24:55.117Z,1017.94
2016-12-13T07:25:55.102Z,1017.93
2016-12-13T07:26:55.087Z,1017.93
2016-12-13T07:27:55.069Z,1017.95
2016-12-13T07:28:55.054Z,1017.95
2016-12-13T07:29:55.040Z,1017.95
2016-12-13T07:30:55.020Z,1018
2016-12-13T07:31:55.007Z,1017.97
2016-12-13T07:32:54.991Z,1017.95
2016-12-13T07:33:54.976Z,1017.96
2016-12-13T07:34:54.957Z,1017.99
2016-12-13T07:35:54.942Z,1017.99
2016-12-13T07:36:54.930Z,1017.97
2016-12-13T07:37:54.911Z,1017.99
2016-12-13T07:38:54.894Z,1017.94
2016-12-13T07:39:54.879Z,1017.97
2016-12-13T07:40:54.863Z,1017.99
2016-12-13T07:41:54.848Z,1018
2016-12-13T07:42:54.831Z,1017.95
2016-12-13T07:43:54.814Z,1017.96
2016-12-13T07:44:54.801Z,1018.05
2016-12-13T07:45:54.782Z,1017.94
2016-12-13T07:46:54.765Z,1017.92
2016-12-13T07:47:54.751Z,1017.96
2016-12-13T07:48:54.736Z,1018.01
2016-12-13T07:49:54.721Z,1018
2016-12-13T07:50:54.703Z,1018.01
2016-12-13T07:51:54.687Z,1018.03
2016-12-13T07:52:54.671Z,1018.01
2016-12-13T07:53:54.655Z,1018.02
2016-12-13T07:54:54.641Z,1017.99
2016-12-13T07:55:54.625Z,1017.99
2016-12-13T07:56:54.608Z,1018.01
2016-12-13T07:57:54.592Z,1018.01
2016-12-13T07:58:54.576Z,1017.98
2016-12-13T07:59:54.560Z,1017.98
2016-12-13T08:00:54.545Z,1017.95
2016-12-13T08:01:54.528Z,1017.98
2016-12-13T08:02:54.513Z,1017.98
2016-12-13T08:03:54.496Z,1017.98
2016-12-13T08:04:54.481Z,1017.96
2016-12-13T08:05:54.465Z,1018
2016-12-13T08:06:54.452Z,1017.99
2016-12-13T08:07:54.430Z,1018.03
2016-12-13T08:08:54.415Z,1018
2016-12-13T08:09:54.400Z,1018
2016-12-13T08:10:54.385Z,1017.96
2016-12-13T08:11:54.367Z,1017.92
2016-12-13T08:12:54.353Z,1017.95
2016-12-13T08:13:54.335Z,1017.94
2016-12-13T08:14:54.321Z,1017.97
2016-12-13T08:15:54.302Z,1017.93
2016-12-13T08:16:54.289Z,1017.96
2016-12-13T08:17:54.273Z,1017.98
2016-12-13T08:18:54.254Z,1017.98
2016-12-13T08:19:54.241Z,1017.95
2016-12-13T08:20:54.224Z,1017.93
2016-12-13T08:21:54.211Z,1017.95
2016-12-13T08:22:54.191Z,1017.95
2016-12-13T08:23:54.177Z,1017.95
2016-12-13T08:24:54.160Z,1017.93
2016-12-13T08:25:54.144Z,1017.96
2016-12-13T08:26:54.129Z,1018
2016-12-13T08:27:54.115Z,1017.95
2016-12-13T08:28:54.097Z,1017.98
2016-12-13T08:29:54.081Z,1017.94
2016-12-13T08:30:54.062Z,1017.94
2016-12-13T08:31:54.048Z,1017.95
2016-12-13T08:32:54.035Z,1017.99
2016-12-13T08:33:54.016Z,1017.96
2016-12-13T08:34:54.001Z,1017.97
2016-12-13T08:35:53.985Z,1017.97
2016-12-13T08:36:53.972Z,1018.01
2016-12-13T08:37:53.954Z,1017.95
2016-12-13T08:38:53.938Z,1017.96
2016-12-13T08:39:53.923Z,1018
2016-12-13T08:40:53.905Z,1017.97
2016-12-13T08:41:53.890Z,1017.95
2016-12-13T08:42:53.874Z,1017.94
2016-12-13T08:43:53.858Z,1017.96
2016-12-13T08:44:53.842Z,1017.95
2016-12-13T08:45:53.825Z,1017.97
2016-12-13T08:46:53.811Z,1017.99
2016-12-13T08:47:53.795Z,1018.03
2016-12-13T08:48:53.780Z,1017.98
2016-12-13T08:49:53.764Z,1018.03
2016-12-13T08:50:53.747Z,1018
2016-12-13T08:51:53.732Z,1018.04
2016-12-13T08:52:53.728Z,1017.99
2016-12-13T08:53:53.704Z,1017.99
2016-12-13T08:54:53.686Z,1017.99
2016-12-13T08:55:53.680Z,1018.02
2016-12-13T08:56:53.654Z,1018.02
2016-12-13T08:57:53.641Z,1018.09
2016-12-13T08:58:53.620Z,1018.07
2016-12-13T08:59:53.605Z,1018.07
2016-12-13T09:00:53.590Z,1018.13
2016-12-13T09:01:53.579Z,1018.05
2016-12-13T09:02:53.558Z,1018.08
2016-12-13T09:03:53.542Z,1018.09
2016-12-13T09:04:53.527Z,1018.11
2016-12-13T09:05:53.509Z,1018.12
2016-12-13T09:06:53.494Z,1018.07
2016-12-13T09:07:53.479Z,1018.08
2016-12-13T09:08:53.464Z,1018.09
2016-12-13T09:09:53.446Z,1018.13
2016-12-13T09:10:53.435Z,1018.11
2016-12-13T09:11:53.414Z,1018.11
2016-12-13T09:12:53.403Z,1018.11
2016-12-13T09:13:53.384Z,1018.12
2016-12-13T09:14:53.369Z,1018.07
2016-12-13T09:15:53.351Z,1018.15
2016-12-13T09:16:53.336Z,1018.1
2016-12-13T09:17:53.339Z,1018.11
2016-12-13T09:18:53.304Z,1018.12
2016-12-13T09:19:53.288Z,1018.15
2016-12-13T09:20:53.273Z,1018.16
2016-12-13T09:21:53.258Z,1018.18
2016-12-13T09:22:53.241Z,1018.16
2016-12-13T09:23:53.224Z,1018.21
2016-12-13T09:24:53.259Z,1018.18
2016-12-13T09:25:53.193Z,1018.22
2016-12-13T09:26:53.179Z,1018.21
2016-12-13T09:27:53.165Z,1018.2
2016-12-13T09:28:53.150Z,1018.2
2016-12-13T09:29:53.136Z,1018.2
2016-12-13T09:30:53.115Z,1018.2
2016-12-13T09:31:53.101Z,1018.25
2016-12-13T09:32:53.085Z,1018.21
2016-12-13T09:33:53.069Z,1018.22
2016-12-13T09:34:53.051Z,1018.23
2016-12-13T09:35:53.038Z,1018.22
2016-12-13T09:36:53.021Z,1018.2
2016-12-13T09:37:53.005Z,1018.21
2016-12-13T09:38:52.990Z,1018.23
2016-12-13T09:39:52.975Z,1018.19
2016-12-13T09:40:52.958Z,1018.19
2016-12-13T09:41:52.942Z,1018.28
2016-12-13T09:42:52.926Z,1018.21
2016-12-13T09:43:52.910Z,1018.25
2016-12-13T09:44:52.894Z,1018.24
2016-12-13T09:45:52.879Z,1018.21
2016-12-13T09:46:52.862Z,1018.18
2016-12-13T09:47:52.847Z,1018.19
2016-12-13T09:48:52.836Z,1018.21
2016-12-13T09:49:52.814Z,1018.2
2016-12-13T09:50:52.799Z,1018.2
2016-12-13T09:51:52.784Z,1018.21
2016-12-13T09:52:52.768Z,1018.22
2016-12-13T09:53:52.751Z,1018.2
2016-12-13T09:54:52.736Z,1018.2
2016-12-13T09:55:52.725Z,1018.19
2016-12-13T09:56:52.706Z,1018.17
2016-12-13T09:57:52.689Z,1018.19
2016-12-13T09:58:52.673Z,1018.23
2016-12-13T09:59:52.658Z,1018.2
2016-12-13T10:00:52.641Z,1018.19
2016-12-13T10:01:52.626Z,1018.2
2016-12-13T10:02:52.610Z,1018.16
2016-12-13T10:03:52.598Z,1018.18
2016-12-13T10:04:52.578Z,1018.17
2016-12-13T10:05:52.567Z,1018.12
2016-12-13T10:06:52.548Z,1018.11
2016-12-13T10:07:52.532Z,1018.14
2016-12-13T10:08:52.515Z,1018.11
2016-12-13T10:09:52.503Z,1018.08
2016-12-13T10:10:52.487Z,1018.13
2016-12-13T10:11:52.467Z,1018.09
2016-12-13T10:12:52.455Z,1018.1
2016-12-13T10:13:52.438Z,1018.09
2016-12-13T10:14:52.418Z,1018.04
2016-12-13T10:15:52.405Z,1018.07
2016-12-13T10:16:52.390Z,1018.08
2016-12-13T10:17:52.372Z,1018.05
2016-12-13T10:18:52.358Z,1018.08
2016-12-13T10:19:52.340Z,1018.06
2016-12-13T10:20:52.327Z,1018.1
2016-12-13T10:21:52.310Z,1018.03
2016-12-13T10:22:52.294Z,1018.07
2016-12-13T10:23:52.276Z,1018.04
2016-12-13T10:24:52.264Z,1018.03
2016-12-13T10:25:52.247Z,1018.01
2016-12-13T10:26:52.229Z,1018.04
2016-12-13T10:27:52.214Z,1018.01
2016-12-13T10:28:52.199Z,1018.04
2016-12-13T10:29:52.186Z,1018
2016-12-13T10:30:52.167Z,1018.04
2016-12-13T10:31:52.154Z,1018.01
2016-12-13T10:32:52.138Z,1018.01
2016-12-13T10:33:52.121Z,1018.01
2016-12-13T10:34:52.104Z,1017.96
2016-12-13T10:35:52.090Z,1017.95
2016-12-13T10:36:52.075Z,1017.94
2016-12-13T10:37:52.056Z,1017.95
2016-12-13T10:38:52.042Z,1017.95
2016-12-13T10:39:52.030Z,1017.91
2016-12-13T10:40:52.011Z,1017.94
2016-12-13T10:41:51.994Z,1017.91
2016-12-13T10:42:51.978Z,1017.92
2016-12-13T10:43:51.963Z,1017.9
2016-12-13T10:44:51.946Z,1017.84
2016-12-13T10:45:51.939Z,1017.84
2016-12-13T10:46:51.916Z,1017.9
2016-12-13T10:47:51.901Z,1017.91
2016-12-13T10:48:51.883Z,1017.85
2016-12-13T10:49:51.870Z,1017.9
2016-12-13T10:50:51.851Z,1017.87
2016-12-13T10:51:51.843Z,1017.82
2016-12-13T10:52:52.672Z,1017.87
2016-12-13T10:53:51.806Z,1017.83
2016-12-13T10:54:51.792Z,1017.82
2016-12-13T10:55:51.775Z,1017.83
2016-12-13T10:56:51.757Z,1017.86
2016-12-13T10:57:51.742Z,1017.84
2016-12-13T10:58:51.729Z,1017.85
2016-12-13T10:59:51.713Z,1017.85
2016-12-13T11:00:51.697Z,1017.81
2016-12-13T11:01:51.682Z,1017.82
2016-12-13T11:02:51.664Z,1017.8
2016-12-13T11:03:51.649Z,1017.81
2016-12-13T11:04:51.634Z,1017.82
2016-12-13T11:05:51.619Z,1017.76
2016-12-13T11:06:51.602Z,1017.77
2016-12-13T11:07:51.587Z,1017.75
2016-12-13T11:08:51.571Z,1017.79
2016-12-13T11:09:51.558Z,1017.83
2016-12-13T11:10:51.539Z,1017.78
2016-12-13T11:11:51.523Z,1017.8
2016-12-13T11:12:51.508Z,1017.8
2016-12-13T11:13:51.491Z,1017.79
2016-12-13T11:14:51.476Z,1017.79
2016-12-13T11:15:51.467Z,1017.78
2016-12-13T11:16:51.450Z,1017.8
2016-12-13T11:17:51.432Z,1017.77
2016-12-13T11:18:51.416Z,1017.75
2016-12-13T11:19:51.399Z,1017.77
2016-12-13T11:20:51.383Z,1017.74
2016-12-13T11:21:51.370Z,1017.76
2016-12-13T11:22:51.350Z,1017.8
2016-12-13T11:23:51.339Z,1017.7
2016-12-13T11:24:51.320Z,1017.74
2016-12-13T11:25:51.303Z,1017.68
2016-12-13T11:26:51.288Z,1017.72
2016-12-13T11:27:51.279Z,1017.69
2016-12-13T11:28:51.257Z,1017.67
2016-12-13T11:29:51.240Z,1017.69
2016-12-13T11:30:51.227Z,1017.63
2016-12-13T11:31:51.210Z,1017.68
2016-12-13T11:32:51.195Z,1017.65
2016-12-13T11:33:51.179Z,1017.7
2016-12-13T11:34:51.162Z,1017.63
2016-12-13T11:35:51.147Z,1017.62
2016-12-13T11:36:51.136Z,1017.6
2016-12-13T11:37:51.119Z,1017.68
2016-12-13T11:38:51.104Z,1017.62
2016-12-13T11:39:51.084Z,1017.62
2016-12-13T11:40:51.070Z,1017.64
2016-12-13T11:41:51.058Z,1017.64
2016-12-13T11:42:51.037Z,1017.62
2016-12-13T11:43:51.022Z,1017.67
2016-12-13T11:44:51.007Z,1017.65
2016-12-13T11:45:50.989Z,1017.61
2016-12-13T11:46:50.974Z,1017.62
2016-12-13T11:47:50.958Z,1017.58
2016-12-13T11:48:50.950Z,1017.54
2016-12-13T11:49:50.926Z,1017.62
2016-12-13T11:50:50.911Z,1017.58
2016-12-13T11:51:50.898Z,1017.58
2016-12-13T11:52:50.881Z,1017.59
2016-12-13T11:53:50.864Z,1017.54
2016-12-13T11:54:50.848Z,1017.55
2016-12-13T11:55:50.835Z,1017.57
2016-12-13T11:56:50.818Z,1017.56
2016-12-13T11:57:50.801Z,1017.5
2016-12-13T11:58:50.785Z,1017.54
2016-12-13T11:59:50.772Z,1017.5
2016-12-13T12:00:50.755Z,1017.49
2016-12-13T12:01:50.738Z,1017.51
2016-12-13T12:02:50.728Z,1017.48
2016-12-13T12:03:50.711Z,1017.49
2016-12-13T12:04:50.692Z,1017.48
2016-12-13T12:05:50.675Z,1017.49
2016-12-13T12:06:50.660Z,1017.48
2016-12-13T12:07:50.645Z,1017.46
2016-12-13T12:08:50.627Z,1017.46